Time;durP1;ratioP1;P1;durP2;ratioP2;P2;SDS_P1;SDS_P2;PMS_P1;PMS_P2;Temp;Humidity;BMP_temperature;BMP_pressure;BME280_temperature;BME280_humidity;BME280_pressure;Samples;Min_cycle;Max_cycle;Signal;HPM_P1;HPM_P2
2022/06/19 00:00:01;;;;;;;7.15;4.45;;;;;;;24.43;58.24;98141.63;4978948;28;103060;-73
2022/06/19 00:02:40;;;;;;;12.68;5.43;;;;;;;24.14;59.17;98139.44;4979264;28;103124;-73
2022/06/19 00:05:10;;;;;;;8.15;3.78;;;;;;;24.21;58.31;98132.97;4979602;28;102955;-73
2022/06/19 00:07:38;;;;;;;7.88;4.75;;;;;;;24.29;58.53;98128.38;4979294;28;104148;-73
2022/06/19 00:10:08;;;;;;;4.27;3.17;;;;;;;24.39;57.76;98139.59;4961429;28;103325;-63
2022/06/19 00:12:36;;;;;;;9.23;3.80;;;;;;;24.43;57.67;98135.41;4961491;28;103205;-63
2022/06/19 00:15:05;;;;;;;7.07;3.95;;;;;;;24.35;57.33;98120.28;4979441;28;102618;-63
2022/06/19 00:17:33;;;;;;;7.37;4.30;;;;;;;24.16;57.93;98118.44;4980637;28;104269;-63
2022/06/19 00:20:01;;;;;;;7.50;3.85;;;;;;;24.22;57.51;98118.41;4980031;28;104889;-63
2022/06/19 00:22:31;;;;;;;7.93;4.30;;;;;;;24.05;58.31;98108.28;4984303;28;103208;-63
2022/06/19 00:25:01;;;;;;;11.82;4.60;;;;;;;24.01;58.21;98107.84;4963105;28;102847;-63
2022/06/19 00:27:29;;;;;;;8.43;4.27;;;;;;;23.95;58.16;98105.16;4983780;28;103079;-63
2022/06/19 00:29:58;;;;;;;5.78;3.53;;;;;;;23.94;58.10;98104.34;4975879;28;103619;-63
2022/06/19 00:32:27;;;;;;;5.67;3.13;;;;;;;24.07;57.40;98104.31;4983626;28;103376;-63
2022/06/19 00:34:55;;;;;;;5.43;3.10;;;;;;;24.00;57.36;98102.69;4983644;28;102641;-64
2022/06/19 00:37:23;;;;;;;8.00;4.10;;;;;;;23.70;59.28;98096.88;4982622;28;102802;-63
2022/06/19 00:39:52;;;;;;;10.05;5.20;;;;;;;23.01;61.21;98085.63;4980992;28;104170;-63
2022/06/19 00:42:24;;;;;;;9.40;4.63;;;;;;;23.05;60.95;98090.38;4983278;28;103217;-63
2022/06/19 00:44:52;;;;;;;9.02;4.35;;;;;;;23.53;58.99;98099.19;4981479;28;103234;-63
2022/06/19 00:47:22;;;;;;;18.70;5.53;;;;;;;23.47;59.34;98096.47;4984172;28;104004;-63
2022/06/19 00:49:54;;;;;;;6.65;3.78;;;;;;;23.52;59.09;98100.19;4977902;28;104172;-63
2022/06/19 00:52:24;;;;;;;7.95;4.00;;;;;;;23.63;58.78;98096.06;4982165;28;103127;-63
2022/06/19 00:54:58;;;;;;;7.90;3.72;;;;;;;23.67;58.89;98089.22;4980666;28;103081;-63
2022/06/19 00:57:29;;;;;;;63.75;25.30;;;;;;;23.78;58.51;98085.06;4984186;28;103627;-63
2022/06/19 01:00:01;;;;;;;12.32;5.38;;;;;;;23.70;59.84;98079.88;4981880;28;103271;-63
2022/06/19 01:02:29;;;;;;;13.20;5.23;;;;;;;23.59;59.93;98074.09;4975621;28;103416;-63
2022/06/19 01:04:57;;;;;;;12.45;6.40;;;;;;;23.44;60.90;98073.44;4981458;28;102689;-63
2022/06/19 01:07:27;;;;;;;10.73;6.17;;;;;;;22.87;63.75;98067.75;4983805;28;102994;-63
2022/06/19 01:09:56;;;;;;;11.87;6.30;;;;;;;22.49;63.39;98067.38;4980743;28;104174;-63
2022/06/19 01:12:26;;;;;;;4.97;3.93;;;;;;;22.84;61.70;98074.38;4982585;28;103212;-73
2022/06/19 01:15:00;;;;;;;6.78;4.55;;;;;;;23.12;61.30;98071.53;4982010;28;103104;-74
2022/06/19 01:17:29;;;;;;;7.03;4.28;;;;;;;23.19;60.68;98066.13;4982004;28;102713;-73
2022/06/19 01:19:57;;;;;;;10.40;4.93;;;;;;;22.97;61.75;98073.56;4978459;28;103328;-73
2022/06/19 01:22:35;;;;;;;5.68;4.00;;;;;;;23.08;61.44;98059.50;4964053;28;103204;-63
2022/06/19 01:25:09;;;;;;;3.50;2.75;;;;;;;23.23;60.26;98057.47;4980768;28;102720;-63
2022/06/19 01:30:27;;;;;;;7.07;4.53;;;;;;;23.14;61.25;98049.78;4980836;28;103304;-63
2022/06/19 01:32:58;;;;;;;6.88;4.50;;;;;;;23.08;61.79;98054.94;4983408;28;103744;-63
2022/06/19 01:35:30;;;;;;;6.90;4.82;;;;;;;22.99;62.13;98044.56;4983979;28;102577;-63
2022/06/19 01:38:08;;;;;;;8.98;5.25;;;;;;;22.52;64.26;98037.38;4980397;28;102654;-63
2022/06/19 01:40:40;;;;;;;8.87;5.63;;;;;;;22.10;65.84;98026.84;4981684;28;103297;-63
2022/06/19 01:43:09;;;;;;;10.30;5.10;;;;;;;22.44;64.65;98030.31;4981449;28;103393;-63
2022/06/19 01:45:40;;;;;;;14.13;5.80;;;;;;;22.06;65.59;98031.00;4979396;28;102759;-62
2022/06/19 01:48:09;;;;;;;11.68;5.80;;;;;;;22.07;65.48;98027.25;4980152;28;103035;-63
2022/06/19 01:50:37;;;;;;;7.32;4.70;;;;;;;22.17;65.32;98023.19;4981027;28;103476;-63
2022/06/19 01:53:09;;;;;;;10.30;5.35;;;;;;;22.35;64.26;98020.75;4984473;28;103496;-73
2022/06/19 01:55:39;;;;;;;7.10;3.38;;;;;;;22.68;62.91;98014.69;4982569;28;102787;-73
2022/06/19 01:58:08;;;;;;;5.23;3.50;;;;;;;22.77;62.66;98013.44;4981373;28;103719;-73
2022/06/19 02:00:37;;;;;;;3.75;3.13;;;;;;;22.82;62.07;98021.78;4981159;28;103309;-73
2022/06/19 02:03:16;;;;;;;3.72;3.33;;;;;;;22.88;61.92;98016.38;4978057;28;103807;-73
2022/06/19 02:05:44;;;;;;;10.00;5.18;;;;;;;22.76;62.79;98026.13;4977679;28;102777;-73
2022/06/19 02:08:14;;;;;;;5.72;4.22;;;;;;;22.76;62.37;98027.97;4982938;28;102663;-63
2022/06/19 02:10:45;;;;;;;4.57;3.80;;;;;;;22.80;62.50;98024.66;4978401;28;104435;-63
2022/06/19 02:13:15;;;;;;;6.70;4.40;;;;;;;22.85;62.54;98021.38;4979747;28;103197;-63
2022/06/19 02:15:46;;;;;;;10.10;5.40;;;;;;;22.72;63.61;98026.69;4980840;28;102981;-63
2022/06/19 02:18:19;;;;;;;7.67;4.80;;;;;;;22.62;64.11;98021.69;4982123;28;102591;-63
2022/06/19 02:20:51;;;;;;;7.50;4.75;;;;;;;22.51;64.34;98028.47;4980350;28;103974;-63
2022/06/19 02:23:21;;;;;;;8.38;4.68;;;;;;;22.62;63.82;98026.25;4981139;28;102610;-63
2022/06/19 02:25:51;;;;;;;11.95;5.78;;;;;;;22.00;66.19;98027.25;4979760;28;102730;-63
2022/06/19 02:28:19;;;;;;;8.80;5.67;;;;;;;21.84;67.57;98036.41;4981141;28;102915;-63
2022/06/19 02:30:48;;;;;;;7.00;4.68;;;;;;;22.24;65.22;98037.47;4978438;28;103189;-63
2022/06/19 02:33:22;;;;;;;7.57;5.00;;;;;;;22.40;64.54;98045.19;4979147;28;103271;-63
2022/06/19 02:35:50;;;;;;;13.05;6.28;;;;;;;21.18;69.18;98040.47;4977827;28;102913;-63
2022/06/19 02:38:20;;;;;;;4.80;3.95;;;;;;;21.42;68.18;98038.41;4980451;28;102892;-73
2022/06/19 02:40:58;;;;;;;5.60;4.20;;;;;;;22.01;65.36;98031.56;4980348;28;104309;-73
2022/06/19 02:43:30;;;;;;;4.15;3.38;;;;;;;22.23;64.37;98027.75;4962405;28;103215;-73
2022/06/19 02:45:58;;;;;;;6.45;4.65;;;;;;;22.36;64.42;98027.81;4982315;28;102702;-73
2022/06/19 02:48:28;;;;;;;12.63;5.70;;;;;;;22.10;65.63;98027.69;4980539;28;102701;-73
2022/06/19 02:50:57;;;;;;;11.07;6.60;;;;;;;21.24;69.21;98039.72;4980204;28;103270;-73
2022/06/19 02:53:25;;;;;;;14.90;7.28;;;;;;;20.87;70.89;98029.19;4979872;28;103224;-63
2022/06/19 02:55:55;;;;;;;10.25;5.93;;;;;;;20.95;71.13;98037.13;4978409;28;102705;-70
2022/06/19 02:58:24;;;;;;;12.97;6.57;;;;;;;20.74;71.72;98026.41;4981034;28;103005;-73
2022/06/19 03:00:54;;;;;;;12.55;7.22;;;;;;;20.46;72.65;98020.94;4978817;28;104553;-73
2022/06/19 03:03:28;;;;;;;4.82;4.00;;;;;;;21.40;68.40;98025.16;4979084;28;103262;-73
2022/06/19 03:05:56;;;;;;;5.47;3.83;;;;;;;21.85;66.54;98019.25;4982181;28;103203;-73
2022/06/19 03:08:24;;;;;;;6.75;4.65;;;;;;;21.90;66.77;98021.38;4978770;28;102874;-63
2022/06/19 03:10:52;;;;;;;6.57;4.65;;;;;;;21.90;66.44;98016.84;4980655;28;104078;-73
2022/06/19 03:13:22;;;;;;;15.20;6.80;;;;;;;21.26;69.51;98013.47;4979209;28;104064;-73
2022/06/19 03:15:59;;;;;;;12.60;6.07;;;;;;;21.29;69.83;98010.41;4980429;28;102613;-63
2022/06/19 03:18:27;;;;;;;7.10;5.00;;;;;;;21.62;67.95;98007.09;4980694;28;103024;-63
2022/06/19 03:20:56;;;;;;;8.95;5.68;;;;;;;21.69;68.15;98005.31;4978054;28;103324;-73
2022/06/19 03:23:24;;;;;;;9.52;5.07;;;;;;;21.53;69.02;98002.94;4980708;28;103163;-73
2022/06/19 03:25:52;;;;;;;10.40;5.78;;;;;;;21.54;68.41;98004.56;4980522;28;102736;-63
2022/06/19 03:28:24;;;;;;;10.75;6.40;;;;;;;21.03;70.63;97999.41;4982268;28;103083;-62
2022/06/19 03:30:54;;;;;;;11.07;5.90;;;;;;;21.22;70.30;98006.81;4980839;28;103252;-73
2022/06/19 03:33:23;;;;;;;7.32;4.60;;;;;;;21.46;69.25;97997.50;4980289;28;103352;-73
2022/06/19 03:35:51;;;;;;;7.82;4.97;;;;;;;21.54;68.44;98000.03;4981512;28;102698;-73
2022/06/19 03:38:20;;;;;;;4.70;3.50;;;;;;;21.80;66.97;97999.38;4976935;28;104012;-73
2022/06/19 03:40:48;;;;;;;7.55;4.60;;;;;;;21.82;67.27;97995.47;4978582;28;103603;-73
2022/06/19 03:43:18;;;;;;;8.73;5.63;;;;;;;21.61;68.36;97994.72;4962708;28;103249;-73
2022/06/19 03:45:47;;;;;;;11.88;5.63;;;;;;;21.06;70.69;97996.31;4963815;28;102713;-73
2022/06/19 03:48:15;;;;;;;10.07;5.10;;;;;;;21.17;70.07;97998.50;4979501;28;103880;-73
2022/06/19 03:50:43;;;;;;;10.13;5.20;;;;;;;21.36;69.42;98003.22;4976054;28;103265;-74
2022/06/19 03:53:11;;;;;;;5.07;3.65;;;;;;;21.70;68.16;97993.50;4978582;28;103265;-66
2022/06/19 03:55:39;;;;;;;8.30;4.57;;;;;;;21.72;68.29;97988.78;4982278;28;102719;-74
2022/06/19 03:58:07;;;;;;;6.13;3.97;;;;;;;21.83;67.91;97988.22;4981380;28;103487;-73
2022/06/19 04:00:35;;;;;;;12.38;5.35;;;;;;;21.79;68.02;97987.78;4981483;28;103237;-74
2022/06/19 04:03:04;;;;;;;5.45;3.88;;;;;;;21.91;67.55;97997.00;4982658;28;102955;-74
2022/06/19 04:05:32;;;;;;;5.03;3.75;;;;;;;22.12;66.58;97990.66;4981440;28;103011;-73
2022/06/19 04:08:00;;;;;;;5.63;3.33;;;;;;;22.33;65.23;97979.78;4984162;28;102742;-74
2022/06/19 04:10:28;;;;;;;6.45;3.78;;;;;;;22.38;65.34;97980.00;4984066;28;103271;-74
2022/06/19 04:12:56;;;;;;;5.30;4.00;;;;;;;22.37;66.32;97986.41;4984647;28;103216;-73
2022/06/19 04:15:24;;;;;;;9.32;5.15;;;;;;;22.32;65.78;97988.88;4964781;28;102894;-64
2022/06/19 04:17:52;;;;;;;5.90;3.85;;;;;;;22.45;65.62;97983.56;4971365;28;103921;-73
2022/06/19 04:20:22;;;;;;;7.03;4.33;;;;;;;22.56;64.98;97984.00;4985285;28;103401;-74
2022/06/19 04:22:49;;;;;;;3.40;3.10;;;;;;;22.76;64.07;97987.59;4984182;28;103310;-74
2022/06/19 04:25:17;;;;;;;4.32;3.35;;;;;;;22.79;63.85;97987.19;4983921;28;102680;-74
2022/06/19 04:27:45;;;;;;;6.28;3.72;;;;;;;22.84;63.68;97990.06;4983355;28;102656;-64
2022/06/19 04:30:19;;;;;;;5.43;3.20;;;;;;;22.97;63.55;97985.53;4980955;28;103312;-64
2022/06/19 04:32:47;;;;;;;6.05;3.67;;;;;;;23.06;63.43;97992.38;4978028;28;103197;-64
2022/06/19 04:35:15;;;;;;;5.93;4.00;;;;;;;23.08;63.55;98001.06;4984524;28;103011;-64
2022/06/19 04:37:44;;;;;;;5.03;3.17;;;;;;;23.18;63.84;98006.06;4981743;28;104162;-64
2022/06/19 04:40:15;;;;;;;6.03;3.47;;;;;;;23.25;62.75;98001.50;4979894;28;104124;-64
2022/06/19 04:42:42;;;;;;;8.02;3.60;;;;;;;23.29;62.10;97997.34;4981312;28;103150;-64
2022/06/19 04:45:11;;;;;;;3.58;2.70;;;;;;;23.41;61.75;97995.69;4963646;28;102862;-64
2022/06/19 04:47:40;;;;;;;11.32;4.05;;;;;;;23.38;62.90;98001.50;4978849;28;102944;-65
2022/06/19 04:50:09;;;;;;;5.15;2.80;;;;;;;23.40;62.45;98002.16;4977526;28;103320;-64
2022/06/19 04:52:37;;;;;;;8.15;3.80;;;;;;;23.34;61.25;97992.16;4979889;28;103218;-64
2022/06/19 04:55:07;;;;;;;8.23;3.90;;;;;;;23.46;60.75;97993.22;4978622;28;102939;-64
2022/06/19 04:57:35;;;;;;;9.77;3.72;;;;;;;23.48;59.61;97991.16;4977814;28;104498;-62
2022/06/19 05:00:05;;;;;;;8.95;3.55;;;;;;;23.67;58.96;97998.38;4980652;28;103277;-62
2022/06/19 05:02:33;;;;;;;5.90;3.58;;;;;;;23.72;59.31;97995.03;4978527;28;103203;-62
2022/06/19 05:05:01;;;;;;;8.70;3.60;;;;;;;23.52;59.34;97992.38;4978008;28;102742;-62
2022/06/19 05:07:29;;;;;;;6.60;3.07;;;;;;;23.85;58.48;97988.78;4980987;28;102637;-63
2022/06/19 05:09:57;;;;;;;8.02;3.60;;;;;;;23.94;58.21;97987.53;4981223;28;104234;-63
2022/06/19 05:12:27;;;;;;;11.00;3.80;;;;;;;24.15;57.95;97992.66;4980723;28;103244;-62
2022/06/19 05:14:54;;;;;;;5.65;2.92;;;;;;;24.36;56.70;97992.38;4981018;28;102607;-63
2022/06/19 05:17:22;;;;;;;4.80;2.87;;;;;;;24.52;56.90;97991.88;4969690;28;104125;-62
2022/06/19 05:19:50;;;;;;;4.70;2.63;;;;;;;24.58;56.31;97998.28;4957631;28;103592;-62
2022/06/19 05:22:19;;;;;;;7.18;3.47;;;;;;;24.61;55.60;97996.00;4979872;28;103264;-62
2022/06/19 05:24:46;;;;;;;5.03;2.73;;;;;;;24.77;55.50;98003.56;4980976;28;102715;-62
2022/06/19 05:27:15;;;;;;;8.50;3.38;;;;;;;24.65;56.49;98005.28;4981205;28;103994;-63
2022/06/19 05:29:45;;;;;;;8.40;3.20;;;;;;;24.75;55.27;98002.97;4979914;28;103290;-63
2022/06/19 05:32:12;;;;;;;7.27;3.30;;;;;;;25.02;54.88;97997.41;4977423;28;103246;-62
2022/06/19 05:34:41;;;;;;;8.23;2.97;;;;;;;25.02;53.58;98000.94;4964526;28;102918;-62
2022/06/19 05:37:15;;;;;;;8.02;3.40;;;;;;;25.16;53.29;98001.66;4979239;28;102878;-62
2022/06/19 05:39:43;;;;;;;8.77;3.33;;;;;;;25.29;53.39;97988.06;4979903;28;103438;-71
2022/06/19 05:42:15;;;;;;;7.37;3.30;;;;;;;25.17;53.46;97995.22;4981771;28;103221;-71
2022/06/19 05:44:45;;;;;;;6.63;3.17;;;;;;;25.45;53.40;97987.47;4982876;28;102786;-72
2022/06/19 05:47:13;;;;;;;8.70;3.87;;;;;;;25.41;53.15;97988.13;4982113;28;104098;-72
2022/06/19 05:49:42;;;;;;;7.32;3.40;;;;;;;25.60;53.04;97990.69;4982314;28;102652;-71
2022/06/19 05:52:15;;;;;;;9.57;3.72;;;;;;;25.68;53.17;97993.13;4970769;28;103272;-71
2022/06/19 05:54:44;;;;;;;9.35;3.40;;;;;;;25.86;52.19;97993.13;4980596;28;102714;-71
2022/06/19 05:57:13;;;;;;;8.77;3.77;;;;;;;25.88;52.43;97993.72;4981785;28;102634;-71
2022/06/19 05:59:41;;;;;;;8.45;3.70;;;;;;;26.03;51.48;97981.69;4960079;28;103826;-72
2022/06/19 06:02:13;;;;;;;6.77;2.90;;;;;;;26.13;52.06;97987.44;4980900;28;103351;-72
2022/06/19 06:04:41;;;;;;;7.97;3.10;;;;;;;26.26;51.47;97992.69;4980250;28;102822;-72
2022/06/19 06:07:10;;;;;;;9.07;3.47;;;;;;;26.43;51.29;97989.16;4979797;28;103942;-72
2022/06/19 06:09:38;;;;;;;6.65;3.22;;;;;;;26.61;50.72;97984.75;4980156;28;103409;-72
2022/06/19 06:12:07;;;;;;;11.43;3.80;;;;;;;26.27;51.23;97988.94;4981010;28;103748;-64
2022/06/19 06:14:35;;;;;;;11.90;3.67;;;;;;;26.43;51.43;97982.91;4982052;28;102940;-63
2022/06/19 06:17:03;;;;;;;6.75;3.47;;;;;;;26.65;51.05;97984.06;4979164;28;103382;-63
2022/06/19 06:19:34;;;;;;;7.80;3.30;;;;;;;26.78;51.04;97981.19;4961528;28;103278;-72
2022/06/19 06:22:03;;;;;;;10.50;4.30;;;;;;;26.56;51.61;97981.88;4980903;28;103472;-73
2022/06/19 06:24:31;;;;;;;6.88;2.95;;;;;;;26.91;50.98;97983.72;4981089;28;102695;-72
2022/06/19 06:26:59;;;;;;;6.90;3.40;;;;;;;27.06;50.49;97986.78;4980344;28;103965;-71
2022/06/19 06:29:27;;;;;;;9.15;3.60;;;;;;;27.27;50.15;97979.16;4968613;28;103919;-64
2022/06/19 06:31:58;;;;;;;9.35;4.07;;;;;;;27.14;49.98;97974.81;4980695;28;104725;-63
2022/06/19 06:34:26;;;;;;;11.23;3.80;;;;;;;27.19;49.75;97987.66;4980150;28;102914;-63
2022/06/19 06:36:55;;;;;;;7.13;3.33;;;;;;;27.43;49.49;97986.63;4981030;28;102882;-63
2022/06/19 06:39:23;;;;;;;9.25;3.65;;;;;;;27.34;49.42;97988.84;4980510;28;103404;-64
2022/06/19 06:41:51;;;;;;;5.73;3.20;;;;;;;27.68;49.19;97987.22;4980950;28;103216;-64
2022/06/19 06:44:19;;;;;;;7.90;3.85;;;;;;;27.67;49.06;97988.31;4960716;28;103090;-64
2022/06/19 06:46:47;;;;;;;12.25;3.65;;;;;;;27.79;49.62;97989.09;4982526;28;102593;-72
2022/06/19 06:49:15;;;;;;;8.15;3.67;;;;;;;28.03;48.71;97979.91;4962125;28;103411;-72
2022/06/19 06:51:44;;;;;;;9.30;3.40;;;;;;;28.06;48.73;97984.88;4979442;28;103027;-72
2022/06/19 06:54:13;;;;;;;8.00;3.75;;;;;;;28.16;48.63;97976.94;4980549;28;104735;-72
2022/06/19 06:56:41;;;;;;;7.80;3.65;;;;;;;28.46;47.98;97986.78;4982110;28;103937;-72
2022/06/19 06:59:10;;;;;;;11.25;3.95;;;;;;;28.57;48.00;97985.91;4960692;28;103278;-72
2022/06/19 07:01:38;;;;;;;8.73;4.07;;;;;;;28.52;48.07;97983.91;4982928;28;103183;-72
2022/06/19 07:04:06;;;;;;;12.93;4.00;;;;;;;28.72;46.89;97981.59;4984745;28;102917;-72
2022/06/19 07:06:35;;;;;;;12.57;4.30;;;;;;;28.95;48.79;97977.94;4982630;28;102729;-72
2022/06/19 07:09:04;;;;;;;10.63;3.95;;;;;;;29.15;46.62;97983.75;4977527;28;103276;-72
2022/06/19 07:11:37;;;;;;;8.73;3.60;;;;;;;29.16;46.09;97984.56;4981053;28;103242;-72
2022/06/19 07:14:06;;;;;;;7.80;3.22;;;;;;;29.35;45.50;97987.88;4961458;28;102648;-69
2022/06/19 07:16:34;;;;;;;5.57;2.88;;;;;;;29.57;48.95;97992.34;4980288;28;104290;-76
2022/06/19 07:19:03;;;;;;;10.10;3.80;;;;;;;29.50;49.29;97985.41;4979943;28;103402;-65
2022/06/19 07:21:31;;;;;;;8.95;3.85;;;;;;;29.35;49.46;97980.56;4978166;28;103197;-66
2022/06/19 07:23:59;;;;;;;9.57;4.03;;;;;;;29.15;48.41;97983.75;4981168;28;102975;-65
2022/06/19 07:26:28;;;;;;;9.30;3.92;;;;;;;29.26;49.74;97977.41;4979786;28;102590;-76
2022/06/19 07:28:57;;;;;;;10.63;4.00;;;;;;;29.22;51.60;97984.41;4962962;28;104202;-65
2022/06/19 07:31:33;;;;;;;7.28;3.25;;;;;;;29.31;51.66;97984.81;4980756;28;103467;-75
2022/06/19 07:34:01;;;;;;;8.57;4.05;;;;;;;29.33;50.63;97984.59;4978999;28;102700;-65
2022/06/19 07:36:30;;;;;;;9.13;4.10;;;;;;;29.14;49.44;97987.50;4979681;28;103031;-74
2022/06/19 07:38:58;;;;;;;9.65;3.95;;;;;;;29.20;49.89;97974.81;4979507;28;103542;-65
2022/06/19 07:41:28;;;;;;;8.77;4.10;;;;;;;29.66;48.83;97990.00;4979952;28;103250;-65
2022/06/19 07:43:57;;;;;;;7.90;4.07;;;;;;;29.81;50.50;97987.56;4981837;28;102843;-65
2022/06/19 07:46:25;;;;;;;11.77;4.43;;;;;;;30.06;49.28;97979.75;4980889;28;102863;-74
2022/06/19 07:51:39;;;;;;;10.70;4.37;;;;;;;29.92;48.08;97973.00;4979912;28;103208;-75
2022/06/19 07:54:07;;;;;;;14.15;4.47;;;;;;;30.08;50.19;97977.59;4980158;28;102889;-75
2022/06/19 07:56:35;;;;;;;10.73;4.30;;;;;;;30.67;47.24;97975.03;4980715;28;103894;-65
2022/06/19 07:59:04;;;;;;;10.77;4.25;;;;;;;30.82;46.92;97962.38;4977672;28;104076;-75
2022/06/19 08:01:32;;;;;;;9.45;4.28;;;;;;;31.04;46.93;97970.53;4977421;28;103194;-65
2022/06/19 08:04:21;;;;;;;11.88;4.35;;;;;;;31.05;46.48;97972.16;4979239;28;102886;-65
2022/06/19 08:06:49;;;;;;;14.68;5.18;;;;;;;31.64;46.92;97980.34;4979114;28;102624;-65
2022/06/19 08:09:18;;;;;;;13.63;4.78;;;;;;;30.88;46.23;97982.31;4978377;28;103233;-65
2022/06/19 08:11:46;;;;;;;12.98;4.60;;;;;;;31.90;47.67;97979.38;4976315;28;103432;-65
2022/06/19 08:14:15;;;;;;;8.73;4.23;;;;;;;32.70;46.09;97982.50;4978648;28;102883;-66
2022/06/19 08:16:43;;;;;;;11.25;4.20;;;;;;;32.67;43.23;97974.84;4977999;28;102917;-66
2022/06/19 08:19:11;;;;;;;10.07;4.53;;;;;;;32.66;46.79;97970.47;4980125;28;104431;-66
2022/06/19 08:21:39;;;;;;;8.52;4.22;;;;;;;33.21;46.80;97969.75;4979657;28;103195;-65
2022/06/19 08:24:07;;;;;;;10.55;4.43;;;;;;;33.28;46.79;97964.03;4977189;28;102857;-65
2022/06/19 08:26:35;;;;;;;8.88;4.43;;;;;;;33.71;42.42;97977.13;4980231;28;102954;-66
2022/06/19 08:29:03;;;;;;;9.13;4.50;;;;;;;33.76;42.61;97966.19;4978031;28;103301;-66
2022/06/19 08:31:34;;;;;;;8.50;3.63;;;;;;;34.02;43.38;97963.41;4977698;28;103811;-74
2022/06/19 08:34:04;;;;;;;12.20;4.95;;;;;;;34.53;40.79;97959.34;4980713;28;102834;-66
2022/06/19 08:36:37;;;;;;;9.18;4.38;;;;;;;35.11;43.73;97946.69;4978100;28;103273;-75
2022/06/19 08:39:09;;;;;;;15.13;5.60;;;;;;;34.86;39.97;97950.44;4977350;28;103266;-75
2022/06/19 08:42:19;;;;;;;9.00;4.65;;;;;;;35.74;40.80;97958.50;4978930;28;103202;-69
2022/06/19 08:45:14;;;;;;;10.97;4.77;;;;;;;35.82;40.92;97955.13;4979657;28;102836;-73
2022/06/19 08:48:01;;;;;;;7.80;4.17;;;;;;;36.69;40.82;97958.50;4961834;28;103425;-66
2022/06/19 08:50:36;;;;;;;10.95;5.43;;;;;;;36.26;36.83;97954.09;4978346;28;104256;-65
2022/06/19 08:53:25;;;;;;;11.87;5.20;;;;;;;36.54;38.51;97951.28;4976375;28;103098;-66
2022/06/19 08:56:01;;;;;;;11.93;5.53;;;;;;;36.72;38.95;97952.41;4980165;28;102828;-65
2022/06/19 08:58:38;;;;;;;15.25;5.82;;;;;;;35.08;40.01;97941.78;4959750;28;104010;-65
2022/06/19 09:01:17;;;;;;;11.02;5.25;;;;;;;36.35;39.91;97953.13;4979576;28;103268;-66
2022/06/19 09:06:46;;;;;;;10.40;5.22;;;;;;;36.90;34.72;97959.84;4971531;28;103957;-66
2022/06/19 09:09:31;;;;;;;7.45;4.82;;;;;;;37.77;34.72;97957.34;4978769;28;102922;-66
2022/06/19 09:12:21;;;;;;;8.88;4.72;;;;;;;37.95;35.02;97963.94;4977423;28;103427;-66
2022/06/19 09:15:03;;;;;;;11.55;5.72;;;;;;;36.99;34.51;97963.59;4980240;28;103464;-73
2022/06/19 09:17:37;;;;;;;10.80;5.53;;;;;;;36.75;28.91;97940.78;4980313;28;102990;-73
2022/06/19 09:20:23;;;;;;;13.77;5.25;;;;;;;37.15;28.16;97945.72;4963187;28;102687;-71
2022/06/19 09:23:20;;;;;;;10.60;4.95;;;;;;;36.66;27.38;97937.09;4982067;28;103357;-72
2022/06/19 09:25:54;;;;;;;9.90;5.60;;;;;;;36.86;27.32;97953.28;4977035;28;103202;-73
2022/06/19 09:28:29;;;;;;;8.25;4.97;;;;;;;37.36;26.81;97950.88;4982655;28;102640;-73
2022/06/19 09:31:04;;;;;;;8.95;5.30;;;;;;;37.37;26.58;97953.31;4981367;28;103174;-73
2022/06/19 09:33:41;;;;;;;10.00;5.35;;;;;;;37.45;26.04;97949.13;4978880;28;103292;-73
2022/06/19 09:36:21;;;;;;;11.65;5.18;;;;;;;37.77;25.96;97943.56;4977211;28;103311;-72
2022/06/19 09:38:56;;;;;;;7.97;4.70;;;;;;;37.73;27.31;97946.09;4979997;28;102752;-72
2022/06/19 09:41:32;;;;;;;11.93;5.05;;;;;;;37.81;24.85;97941.84;4978650;28;102808;-72
2022/06/19 09:44:06;;;;;;;7.18;4.63;;;;;;;38.07;25.32;97940.22;4970522;28;103391;-71
2022/06/19 09:46:43;;;;;;;8.82;4.30;;;;;;;38.62;24.83;97934.69;4981058;28;103421;-71
2022/06/19 09:49:16;;;;;;;10.32;4.63;;;;;;;38.58;24.93;97933.66;4982805;28;102640;-71
2022/06/19 09:51:55;;;;;;;10.73;4.47;;;;;;;37.97;25.22;97932.16;4977097;28;102807;-71
2022/06/19 09:54:29;;;;;;;8.23;4.57;;;;;;;38.73;25.46;97911.25;4963237;28;104297;-66
2022/06/19 09:57:02;;;;;;;9.80;4.72;;;;;;;38.17;25.64;97920.75;4964148;28;103279;-72
2022/06/19 09:59:38;;;;;;;10.93;5.10;;;;;;;38.15;24.65;97925.72;4979818;28;103049;-71
2022/06/19 10:02:14;;;;;;;9.52;5.38;;;;;;;38.66;25.60;97911.66;4980029;28;104847;-72
2022/06/19 10:04:47;;;;;;;10.10;5.55;;;;;;;38.12;24.71;97920.03;4980344;28;103239;-72
2022/06/19 10:07:26;;;;;;;9.70;5.33;;;;;;;38.12;25.17;97920.81;4968572;28;103277;-72
2022/06/19 10:09:59;;;;;;;13.57;5.30;;;;;;;38.89;27.29;97911.72;4979959;28;102924;-72
2022/06/19 10:12:33;;;;;;;9.80;5.03;;;;;;;39.31;26.19;97917.59;4981997;28;102989;-72
2022/06/19 10:15:05;;;;;;;12.20;5.55;;;;;;;38.80;25.43;97920.75;4979994;28;104439;-72
2022/06/19 10:17:43;;;;;;;12.88;5.18;;;;;;;38.85;25.15;97908.78;4979200;28;103355;-73
2022/06/19 10:20:16;;;;;;;10.88;5.95;;;;;;;39.06;25.51;97907.16;4962766;28;102738;-73
2022/06/19 10:22:59;;;;;;;10.63;5.70;;;;;;;38.72;25.60;97906.84;4982491;28;102717;-73
2022/06/19 10:25:46;;;;;;;8.77;5.15;;;;;;;39.08;23.92;97902.13;4979202;28;103383;-73
2022/06/19 10:28:39;;;;;;;14.70;5.50;;;;;;;39.35;25.18;97907.56;4980696;28;103211;-73
2022/06/19 10:31:17;;;;;;;10.70;5.03;;;;;;;39.71;25.13;97890.06;4981307;28;102975;-74
2022/06/19 10:33:56;;;;;;;11.13;5.32;;;;;;;38.99;24.42;97889.41;4966123;28;103720;-66
2022/06/19 10:36:32;;;;;;;9.20;5.35;;;;;;;39.50;25.56;97897.25;4980879;28;103344;-66
2022/06/19 10:39:25;;;;;;;10.70;5.30;;;;;;;39.26;24.51;97895.63;4981986;28;103190;-66
2022/06/19 10:42:04;;;;;;;11.23;5.30;;;;;;;38.79;25.18;97888.78;4971622;28;102675;-64
2022/06/19 10:44:47;;;;;;;9.35;5.10;;;;;;;39.04;24.10;97886.53;4982439;28;102783;-68
2022/06/19 10:47:26;;;;;;;9.40;5.13;;;;;;;39.24;25.47;97892.38;4981231;28;103566;-65
2022/06/19 10:50:02;;;;;;;11.10;6.30;;;;;;;39.64;24.61;97884.19;4977257;28;104328;-66
2022/06/19 10:52:42;;;;;;;12.23;5.22;;;;;;;38.96;23.96;97901.91;4979561;28;102794;-66
2022/06/19 10:55:24;;;;;;;13.07;5.72;;;;;;;38.96;24.58;97888.09;4979230;28;102796;-66
2022/06/19 10:58:07;;;;;;;13.60;6.85;;;;;;;38.80;25.17;97897.84;4980136;28;103306;-66
2022/06/19 11:00:35;;;;;;;13.37;8.17;;;;;;;39.20;24.80;97885.00;4979439;28;103110;-66
2022/06/19 11:06:04;;;;;;;10.32;5.40;;;;;;;39.84;25.60;97878.06;4971360;28;102997;-66
2022/06/19 11:08:35;;;;;;;9.13;4.87;;;;;;;39.95;23.43;97868.34;4962709;28;103267;-66
2022/06/19 11:11:06;;;;;;;9.73;5.40;;;;;;;39.61;23.64;97865.44;4979396;28;103402;-66
2022/06/19 11:13:56;;;;;;;11.60;6.17;;;;;;;39.30;24.10;97863.47;4980794;28;102770;-66
2022/06/19 11:16:25;;;;;;;11.10;5.50;;;;;;;39.06;24.17;97879.56;4980340;28;103949;-65
2022/06/19 11:18:54;;;;;;;7.43;5.60;;;;;;;39.49;24.07;97871.56;4962581;28;103320;-66
2022/06/19 11:21:26;;;;;;;15.60;6.18;;;;;;;39.65;23.90;97874.75;4977728;28;103220;-66
2022/06/19 11:23:57;;;;;;;11.02;5.22;;;;;;;39.24;24.27;97867.53;4963610;28;103844;-66
2022/06/19 11:26:36;;;;;;;12.60;5.63;;;;;;;39.32;23.79;97865.94;4976452;28;104479;-66
2022/06/19 11:29:10;;;;;;;11.80;5.93;;;;;;;39.16;24.21;97862.72;4977673;28;103307;-66
2022/06/19 11:31:41;;;;;;;11.30;5.65;;;;;;;38.98;23.72;97865.69;4979148;28;103215;-73
2022/06/19 11:37:11;;;;;;;14.85;5.13;;;;;;;40.05;23.40;97872.78;4980342;28;102917;-74
2022/06/19 11:39:42;;;;;;;10.85;5.18;;;;;;;40.11;23.05;97861.28;4980442;28;103517;-74
2022/06/19 11:42:36;;;;;;;13.95;5.18;;;;;;;39.54;23.64;97856.78;4969405;28;103213;-73
2022/06/19 11:45:07;;;;;;;8.45;5.57;;;;;;;39.32;23.11;97861.25;4961128;28;102946;-74
2022/06/19 11:47:37;;;;;;;12.77;5.35;;;;;;;39.23;23.54;97863.13;4963156;28;102891;-73
2022/06/19 11:50:19;;;;;;;8.50;5.40;;;;;;;39.71;23.56;97873.47;4979579;28;103306;-73
2022/06/19 11:52:52;;;;;;;11.60;5.30;;;;;;;39.46;23.21;97866.66;4952159;28;103245;-73
2022/06/19 11:55:30;;;;;;;9.87;4.90;;;;;;;40.25;21.95;97858.38;4980254;28;102669;-74